sensor_id;sensor_type;location;lat;lon;timestamp;pressure;altitude;pressure_sealevel;temperature;humidity
72157;BME280;60035;52.122;5.406;2023-04-26T00:01:36;102146.63;;;3.78;94.41
72157;BME280;60035;52.122;5.406;2023-04-26T00:04:02;102147.34;;;3.74;93.89
72157;BME280;60035;52.122;5.406;2023-04-26T00:06:29;102148.19;;;3.73;93.86
72157;BME280;60035;52.122;5.406;2023-04-26T00:08:56;102149.78;;;3.68;93.92
72157;BME280;60035;52.122;5.406;2023-04-26T00:11:22;102147.09;;;3.60;94.41
72157;BME280;60035;52.122;5.406;2023-04-26T00:13:49;102152.94;;;3.58;94.42
72157;BME280;60035;52.122;5.406;2023-04-26T00:16:15;102148.66;;;3.54;94.32
72157;BME280;60035;52.122;5.406;2023-04-26T00:18:42;102153.59;;;3.49;94.25
72157;BME280;60035;52.122;5.406;2023-04-26T00:21:08;102156.88;;;3.45;94.36
72157;BME280;60035;52.122;5.406;2023-04-26T00:23:34;102148.44;;;3.43;94.50
72157;BME280;60035;52.122;5.406;2023-04-26T00:26:02;102146.72;;;3.42;93.97
72157;BME280;60035;52.122;5.406;2023-04-26T00:28:28;102150.09;;;3.42;94.04
72157;BME280;60035;52.122;5.406;2023-04-26T00:30:55;102139.78;;;3.34;94.59
72157;BME280;60035;52.122;5.406;2023-04-26T00:33:23;102145.63;;;3.32;94.08
72157;BME280;60035;52.122;5.406;2023-04-26T00:35:49;102146.44;;;3.29;94.26
72157;BME280;60035;52.122;5.406;2023-04-26T00:38:16;102143.00;;;3.26;94.54
72157;BME280;60035;52.122;5.406;2023-04-26T00:40:43;102142.88;;;3.21;93.97
72157;BME280;60035;52.122;5.406;2023-04-26T00:43:09;102141.84;;;3.11;94.24
72157;BME280;60035;52.122;5.406;2023-04-26T00:45:36;102143.34;;;3.03;94.63
72157;BME280;60035;52.122;5.406;2023-04-26T00:48:03;102143.91;;;2.91;95.02
72157;BME280;60035;52.122;5.406;2023-04-26T00:50:30;102140.28;;;2.81;95.53
72157;BME280;60035;52.122;5.406;2023-04-26T00:52:56;102138.44;;;2.74;96.04
72157;BME280;60035;52.122;5.406;2023-04-26T00:55:24;102137.53;;;2.72;96.90
72157;BME280;60035;52.122;5.406;2023-04-26T00:57:53;102133.22;;;2.68;97.11
72157;BME280;60035;52.122;5.406;2023-04-26T01:00:20;102133.94;;;2.62;97.60
72157;BME280;60035;52.122;5.406;2023-04-26T01:02:47;102142.91;;;2.49;97.95
72157;BME280;60035;52.122;5.406;2023-04-26T01:05:14;102141.78;;;2.38;98.77
72157;BME280;60035;52.122;5.406;2023-04-26T01:07:40;102145.00;;;2.32;99.77
72157;BME280;60035;52.122;5.406;2023-04-26T01:10:07;102146.47;;;2.24;100.00
72157;BME280;60035;52.122;5.406;2023-04-26T01:12:37;102150.50;;;2.17;100.00
72157;BME280;60035;52.122;5.406;2023-04-26T01:15:04;102147.94;;;2.16;100.00
72157;BME280;60035;52.122;5.406;2023-04-26T01:17:31;102147.84;;;2.13;100.00
72157;BME280;60035;52.122;5.406;2023-04-26T01:19:57;102151.22;;;2.12;100.00
72157;BME280;60035;52.122;5.406;2023-04-26T01:22:24;102153.63;;;2.09;100.00
72157;BME280;60035;52.122;5.406;2023-04-26T01:24:53;102152.75;;;2.07;100.00
72157;BME280;60035;52.122;5.406;2023-04-26T01:27:20;102161.16;;;2.06;100.00
72157;BME280;60035;52.122;5.406;2023-04-26T01:29:47;102158.53;;;2.03;100.00
72157;BME280;60035;52.122;5.406;2023-04-26T01:32:13;102150.03;;;1.99;100.00
72157;BME280;60035;52.122;5.406;2023-04-26T01:34:40;102151.72;;;1.98;100.00
72157;BME280;60035;52.122;5.406;2023-04-26T01:37:06;102156.63;;;1.94;100.00
72157;BME280;60035;52.122;5.406;2023-04-26T01:39:33;102153.09;;;1.89;100.00
72157;BME280;60035;52.122;5.406;2023-04-26T01:42:02;102162.34;;;1.88;100.00
72157;BME280;60035;52.122;5.406;2023-04-26T01:44:29;102162.34;;;1.88;100.00
72157;BME280;60035;52.122;5.406;2023-04-26T01:46:56;102157.16;;;1.83;100.00
72157;BME280;60035;52.122;5.406;2023-04-26T01:49:22;102148.72;;;1.81;100.00
72157;BME280;60035;52.122;5.406;2023-04-26T01:51:49;102146.19;;;1.81;100.00
72157;BME280;60035;52.122;5.406;2023-04-26T01:54:15;102143.50;;;1.77;100.00
72157;BME280;60035;52.122;5.406;2023-04-26T01:56:42;102145.06;;;1.72;100.00
72157;BME280;60035;52.122;5.406;2023-04-26T01:59:08;102144.22;;;1.71;100.00
72157;BME280;60035;52.122;5.406;2023-04-26T02:01:35;102144.97;;;1.69;100.00
72157;BME280;60035;52.122;5.406;2023-04-26T02:04:01;102143.34;;;1.71;100.00
72157;BME280;60035;52.122;5.406;2023-04-26T02:06:28;102144.97;;;1.69;100.00
72157;BME280;60035;52.122;5.406;2023-04-26T02:08:55;102145.78;;;1.67;100.00
72157;BME280;60035;52.122;5.406;2023-04-26T02:11:22;102143.25;;;1.67;100.00
72157;BME280;60035;52.122;5.406;2023-04-26T02:13:48;102143.28;;;1.69;100.00
72157;BME280;60035;52.122;5.406;2023-04-26T02:16:14;102155.75;;;1.63;100.00
72157;BME280;60035;52.122;5.406;2023-04-26T02:18:42;102151.59;;;1.65;100.00
72157;BME280;60035;52.122;5.406;2023-04-26T02:21:10;102141.50;;;1.65;100.00
72157;BME280;60035;52.122;5.406;2023-04-26T02:23:37;102152.38;;;1.62;100.00
72157;BME280;60035;52.122;5.406;2023-04-26T02:26:03;102156.38;;;1.56;100.00
72157;BME280;60035;52.122;5.406;2023-04-26T02:28:30;102150.22;;;1.46;100.00
72157;BME280;60035;52.122;5.406;2023-04-26T02:30:56;102147.50;;;1.40;100.00
72157;BME280;60035;52.122;5.406;2023-04-26T02:33:23;102150.94;;;1.42;100.00
72157;BME280;60035;52.122;5.406;2023-04-26T02:35:50;102157.53;;;1.37;100.00
72157;BME280;60035;52.122;5.406;2023-04-26T02:38:16;102150.59;;;1.31;100.00
72157;BME280;60035;52.122;5.406;2023-04-26T02:40:43;102155.53;;;1.26;100.00
72157;BME280;60035;52.122;5.406;2023-04-26T02:43:09;102154.56;;;1.23;100.00
72157;BME280;60035;52.122;5.406;2023-04-26T02:45:42;102148.69;;;1.22;100.00
72157;BME280;60035;52.122;5.406;2023-04-26T02:48:09;102149.47;;;1.21;100.00
72157;BME280;60035;52.122;5.406;2023-04-26T02:50:35;102154.34;;;1.15;100.00
72157;BME280;60035;52.122;5.406;2023-04-26T02:53:02;102156.78;;;1.12;100.00
72157;BME280;60035;52.122;5.406;2023-04-26T02:55:28;102156.66;;;1.07;100.00
72157;BME280;60035;52.122;5.406;2023-04-26T02:57:55;102151.44;;;1.03;100.00
72157;BME280;60035;52.122;5.406;2023-04-26T03:00:21;102152.97;;;0.97;100.00
72157;BME280;60035;52.122;5.406;2023-04-26T03:02:48;102146.81;;;0.89;100.00
72157;BME280;60035;52.122;5.406;2023-04-26T03:05:15;102140.72;;;0.82;100.00
72157;BME280;60035;52.122;5.406;2023-04-26T03:07:41;102141.63;;;0.85;100.00
72157;BME280;60035;52.122;5.406;2023-04-26T03:10:08;102140.78;;;0.84;100.00
72157;BME280;60035;52.122;5.406;2023-04-26T03:12:35;102139.09;;;0.85;100.00
72157;BME280;60035;52.122;5.406;2023-04-26T03:15:01;102134.94;;;0.85;100.00
72157;BME280;60035;52.122;5.406;2023-04-26T03:17:29;102139.25;;;0.89;100.00
72157;BME280;60035;52.122;5.406;2023-04-26T03:19:55;102140.09;;;0.90;100.00
72157;BME280;60035;52.122;5.406;2023-04-26T03:22:22;102146.81;;;0.89;100.00
72157;BME280;60035;52.122;5.406;2023-04-26T03:24:48;102145.25;;;0.93;100.00
72157;BME280;60035;52.122;5.406;2023-04-26T03:27:15;102138.50;;;0.92;100.00
72157;BME280;60035;52.122;5.406;2023-04-26T03:29:41;102137.59;;;0.90;100.00
72157;BME280;60035;52.122;5.406;2023-04-26T03:32:09;102137.44;;;0.85;100.00
72157;BME280;60035;52.122;5.406;2023-04-26T03:34:36;102138.94;;;0.78;100.00
72157;BME280;60035;52.122;5.406;2023-04-26T03:37:02;102140.53;;;0.76;100.00
72157;BME280;60035;52.122;5.406;2023-04-26T03:39:29;102132.13;;;0.76;100.00
72157;BME280;60035;52.122;5.406;2023-04-26T03:41:55;102132.97;;;0.76;100.00
72157;BME280;60035;52.122;5.406;2023-04-26T03:44:21;102131.25;;;0.75;100.00
72157;BME280;60035;52.122;5.406;2023-04-26T03:46:48;102131.25;;;0.75;100.00
72157;BME280;60035;52.122;5.406;2023-04-26T03:49:14;102131.16;;;0.72;100.00
72157;BME280;60035;52.122;5.406;2023-04-26T03:51:41;102133.63;;;0.71;100.00
72157;BME280;60035;52.122;5.406;2023-04-26T03:54:07;102134.38;;;0.68;100.00
72157;BME280;60035;52.122;5.406;2023-04-26T03:56:34;102136.06;;;0.68;100.00
72157;BME280;60035;52.122;5.406;2023-04-26T03:59:01;102134.38;;;0.68;100.00
72157;BME280;60035;52.122;5.406;2023-04-26T04:01:28;102136.75;;;0.63;100.00
72157;BME280;60035;52.122;5.406;2023-04-26T04:03:54;102136.91;;;0.68;100.00
72157;BME280;60035;52.122;5.406;2023-04-26T04:06:21;102133.84;;;0.77;100.00
72157;BME280;60035;52.122;5.406;2023-04-26T04:08:48;102138.22;;;0.82;100.00
72157;BME280;60035;52.122;5.406;2023-04-26T04:11:15;102131.59;;;0.86;100.00
72157;BME280;60035;52.122;5.406;2023-04-26T04:13:42;102137.34;;;0.82;100.00
72157;BME280;60035;52.122;5.406;2023-04-26T04:16:08;102131.38;;;0.78;100.00
72157;BME280;60035;52.122;5.406;2023-04-26T04:18:35;102129.59;;;0.76;100.00
72157;BME280;60035;52.122;5.406;2023-04-26T04:21:02;102124.59;;;0.77;100.00
72157;BME280;60035;52.122;5.406;2023-04-26T04:23:29;102133.94;;;0.80;100.00
72157;BME280;60035;52.122;5.406;2023-04-26T04:25:55;102134.63;;;0.76;100.00
72157;BME280;60035;52.122;5.406;2023-04-26T04:28:21;102130.31;;;0.72;100.00
72157;BME280;60035;52.122;5.406;2023-04-26T04:30:48;102137.00;;;0.71;100.00
72157;BME280;60035;52.122;5.406;2023-04-26T04:33:15;102124.59;;;0.77;100.00
72157;BME280;60035;52.122;5.406;2023-04-26T04:35:43;102125.50;;;0.79;100.00
72157;BME280;60035;52.122;5.406;2023-04-26T04:38:10;102137.03;;;0.73;100.00
72157;BME280;60035;52.122;5.406;2023-04-26T04:40:36;102131.81;;;0.66;100.00
72157;BME280;60035;52.122;5.406;2023-04-26T04:43:02;102129.38;;;0.70;100.00
72157;BME280;60035;52.122;5.406;2023-04-26T04:45:29;102131.31;;;0.77;100.00
72157;BME280;60035;52.122;5.406;2023-04-26T04:47:55;102130.56;;;0.79;100.00
72157;BME280;60035;52.122;5.406;2023-04-26T04:50:22;102130.72;;;0.86;100.00
72157;BME280;60035;52.122;5.406;2023-04-26T04:52:48;102136.75;;;0.89;100.00
72157;BME280;60035;52.122;5.406;2023-04-26T04:55:15;102141.91;;;0.94;100.00
72157;BME280;60035;52.122;5.406;2023-04-26T04:57:41;102137.75;;;0.94;100.00
72157;BME280;60035;52.122;5.406;2023-04-26T05:00:08;102137.03;;;0.98;100.00
72157;BME280;60035;52.122;5.406;2023-04-26T05:02:36;102138.81;;;1.03;100.00
72157;BME280;60035;52.122;5.406;2023-04-26T05:05:03;102141.41;;;1.04;100.00
72157;BME280;60035;52.122;5.406;2023-04-26T05:07:31;102140.63;;;1.07;100.00
72157;BME280;60035;52.122;5.406;2023-04-26T05:09:58;102141.63;;;1.12;100.00
72157;BME280;60035;52.122;5.406;2023-04-26T05:12:25;102144.19;;;1.13;100.00
72157;BME280;60035;52.122;5.406;2023-04-26T05:14:51;102150.88;;;1.11;100.00
72157;BME280;60035;52.122;5.406;2023-04-26T05:17:18;102154.41;;;1.16;100.00
72157;BME280;60035;52.122;5.406;2023-04-26T05:19:44;102156.44;;;1.28;100.00
72157;BME280;60035;52.122;5.406;2023-04-26T05:22:11;102154.28;;;1.41;100.00
72157;BME280;60035;52.122;5.406;2023-04-26T05:24:46;102160.47;;;1.52;100.00
72157;BME280;60035;52.122;5.406;2023-04-26T05:27:13;102158.13;;;1.58;100.00
72157;BME280;60035;52.122;5.406;2023-04-26T05:29:40;102158.41;;;1.67;100.00
72157;BME280;60035;52.122;5.406;2023-04-26T05:32:07;102157.81;;;1.76;100.00
72157;BME280;60035;52.122;5.406;2023-04-26T05:34:34;102148.94;;;1.89;100.00
72157;BME280;60035;52.122;5.406;2023-04-26T05:37:01;102156.91;;;2.05;100.00
72157;BME280;60035;52.122;5.406;2023-04-26T05:39:29;102155.41;;;2.11;100.00
72157;BME280;60035;52.122;5.406;2023-04-26T05:41:55;102157.44;;;2.25;100.00
72157;BME280;60035;52.122;5.406;2023-04-26T05:44:22;102154.34;;;2.35;100.00
72157;BME280;60035;52.122;5.406;2023-04-26T05:46:48;102162.25;;;2.47;100.00
72157;BME280;60035;52.122;5.406;2023-04-26T05:49:15;102156.72;;;2.62;100.00
72157;BME280;60035;52.122;5.406;2023-04-26T05:51:41;102157.78;;;2.72;100.00
72157;BME280;60035;52.122;5.406;2023-04-26T05:54:07;102156.56;;;2.91;100.00
72157;BME280;60035;52.122;5.406;2023-04-26T05:56:34;102158.63;;;3.08;100.00
72157;BME280;60035;52.122;5.406;2023-04-26T05:59:00;102155.63;;;3.24;100.00
72157;BME280;60035;52.122;5.406;2023-04-26T06:01:26;102154.34;;;3.43;100.00
72157;BME280;60035;52.122;5.406;2023-04-26T06:03:53;102153.91;;;3.63;100.00
72157;BME280;60035;52.122;5.406;2023-04-26T06:06:25;102155.13;;;3.83;100.00
72157;BME280;60035;52.122;5.406;2023-04-26T06:08:53;102158.09;;;4.05;100.00
72157;BME280;60035;52.122;5.406;2023-04-26T06:11:20;102158.50;;;4.27;100.00
72157;BME280;60035;52.122;5.406;2023-04-26T06:13:47;102158.00;;;4.46;100.00
72157;BME280;60035;52.122;5.406;2023-04-26T06:16:13;102164.97;;;4.60;100.00
72157;BME280;60035;52.122;5.406;2023-04-26T06:18:40;102150.00;;;4.74;100.00
72157;BME280;60035;52.122;5.406;2023-04-26T06:21:06;102153.50;;;4.83;100.00
72157;BME280;60035;52.122;5.406;2023-04-26T06:23:33;102151.09;;;4.91;100.00
72157;BME280;60035;52.122;5.406;2023-04-26T06:25:59;102154.63;;;5.01;100.00
72157;BME280;60035;52.122;5.406;2023-04-26T06:28:26;102161.50;;;5.07;100.00
72157;BME280;60035;52.122;5.406;2023-04-26T06:30:52;102159.91;;;5.13;100.00
72157;BME280;60035;52.122;5.406;2023-04-26T06:33:19;102158.34;;;5.25;100.00
72157;BME280;60035;52.122;5.406;2023-04-26T06:35:45;102161.91;;;5.36;100.00
72157;BME280;60035;52.122;5.406;2023-04-26T06:38:12;102167.13;;;5.48;100.00
72157;BME280;60035;52.122;5.406;2023-04-26T06:40:38;102163.19;;;5.71;100.00
72157;BME280;60035;52.122;5.406;2023-04-26T06:43:06;102170.19;;;5.90;100.00
72157;BME280;60035;52.122;5.406;2023-04-26T06:45:33;102163.56;;;6.03;100.00
72157;BME280;60035;52.122;5.406;2023-04-26T06:47:59;102170.47;;;6.15;100.00
72157;BME280;60035;52.122;5.406;2023-04-26T06:50:26;102174.78;;;6.21;100.00
72157;BME280;60035;52.122;5.406;2023-04-26T06:52:53;102179.06;;;6.26;100.00
72157;BME280;60035;52.122;5.406;2023-04-26T06:55:19;102173.25;;;6.37;100.00
72157;BME280;60035;52.122;5.406;2023-04-26T06:57:46;102181.78;;;6.43;98.96
72157;BME280;60035;52.122;5.406;2023-04-26T07:00:13;102183.59;;;6.55;98.50
72157;BME280;60035;52.122;5.406;2023-04-26T07:02:39;102177.81;;;6.75;98.86
72157;BME280;60035;52.122;5.406;2023-04-26T07:05:07;102179.66;;;6.93;97.52
72157;BME280;60035;52.122;5.406;2023-04-26T07:07:34;102176.31;;;7.02;96.25
72157;BME280;60035;52.122;5.406;2023-04-26T07:10:01;102165.31;;;7.07;95.68
72157;BME280;60035;52.122;5.406;2023-04-26T07:12:28;102167.94;;;7.18;94.91
72157;BME280;60035;52.122;5.406;2023-04-26T07:14:54;102169.63;;;7.22;94.48
72157;BME280;60035;52.122;5.406;2023-04-26T07:17:20;102169.69;;;7.30;93.68
72157;BME280;60035;52.122;5.406;2023-04-26T07:19:47;102159.53;;;7.36;93.19
72157;BME280;60035;52.122;5.406;2023-04-26T07:22:13;102164.59;;;7.30;92.37
72157;BME280;60035;52.122;5.406;2023-04-26T07:24:42;102163.81;;;7.43;92.96
72157;BME280;60035;52.122;5.406;2023-04-26T07:27:09;102157.97;;;7.58;92.33
72157;BME280;60035;52.122;5.406;2023-04-26T07:29:37;102150.34;;;7.69;92.25
72157;BME280;60035;52.122;5.406;2023-04-26T07:32:04;102150.38;;;7.81;90.54
72157;BME280;60035;52.122;5.406;2023-04-26T07:34:31;102152.97;;;7.89;88.27
72157;BME280;60035;52.122;5.406;2023-04-26T07:36:57;102155.50;;;7.88;87.24
72157;BME280;60035;52.122;5.406;2023-04-26T07:39:24;102162.34;;;7.96;86.62
72157;BME280;60035;52.122;5.406;2023-04-26T07:41:50;102164.91;;;7.99;85.95
72157;BME280;60035;52.122;5.406;2023-04-26T07:44:16;102163.19;;;8.09;86.57
72157;BME280;60035;52.122;5.406;2023-04-26T07:46:43;102172.59;;;8.18;85.52
72157;BME280;60035;52.122;5.406;2023-04-26T07:49:09;102170.91;;;8.25;85.09
72157;BME280;60035;52.122;5.406;2023-04-26T07:51:36;102172.59;;;8.32;85.31
72157;BME280;60035;52.122;5.406;2023-04-26T07:54:02;102172.59;;;8.27;84.41
72157;BME280;60035;52.122;5.406;2023-04-26T07:56:29;102176.00;;;8.26;84.83
72157;BME280;60035;52.122;5.406;2023-04-26T07:58:55;102178.53;;;8.26;84.25
72157;BME280;60035;52.122;5.406;2023-04-26T08:01:21;102182.84;;;8.33;84.53
72157;BME280;60035;52.122;5.406;2023-04-26T08:03:48;102184.56;;;8.58;84.01
72157;BME280;60035;52.122;5.406;2023-04-26T08:06:15;102181.16;;;8.82;82.11
72157;BME280;60035;52.122;5.406;2023-04-26T08:08:43;102185.41;;;8.95;80.88
72157;BME280;60035;52.122;5.406;2023-04-26T08:11:16;102183.69;;;9.07;78.66
72157;BME280;60035;52.122;5.406;2023-04-26T08:13:42;102181.16;;;9.07;78.87
72157;BME280;60035;52.122;5.406;2023-04-26T08:16:09;102173.47;;;9.11;78.66
72157;BME280;60035;52.122;5.406;2023-04-26T08:18:36;102176.00;;;9.25;76.65
72157;BME280;60035;52.122;5.406;2023-04-26T08:21:02;102176.00;;;9.21;74.64
72157;BME280;60035;52.122;5.406;2023-04-26T08:23:33;102182.84;;;9.12;74.47
72157;BME280;60035;52.122;5.406;2023-04-26T08:26:01;102179.44;;;9.04;73.93
72157;BME280;60035;52.122;5.406;2023-04-26T08:28:28;102184.53;;;8.99;73.03
72157;BME280;60035;52.122;5.406;2023-04-26T08:30:54;102184.56;;;8.86;72.35
72157;BME280;60035;52.122;5.406;2023-04-26T08:33:21;102176.91;;;8.78;71.75
72157;BME280;60035;52.122;5.406;2023-04-26T08:35:48;102183.72;;;8.63;71.91
72157;BME280;60035;52.122;5.406;2023-04-26T08:38:15;102176.06;;;8.56;72.00
72157;BME280;60035;52.122;5.406;2023-04-26T08:40:43;102169.25;;;8.45;72.24
72157;BME280;60035;52.122;5.406;2023-04-26T08:43:13;102174.31;;;8.39;72.68
72157;BME280;60035;52.122;5.406;2023-04-26T08:45:44;102174.31;;;8.38;72.47
72157;BME280;60035;52.122;5.406;2023-04-26T08:48:11;102175.19;;;8.33;72.78
72157;BME280;60035;52.122;5.406;2023-04-26T08:50:42;102178.56;;;8.31;73.09
72157;BME280;60035;52.122;5.406;2023-04-26T08:53:13;102181.97;;;8.33;74.09
72157;BME280;60035;52.122;5.406;2023-04-26T08:55:40;102182.81;;;8.35;74.44
72157;BME280;60035;52.122;5.406;2023-04-26T08:58:08;102186.19;;;8.26;74.32
72157;BME280;60035;52.122;5.406;2023-04-26T09:00:35;102182.78;;;8.13;75.33
72157;BME280;60035;52.122;5.406;2023-04-26T09:03:01;102180.22;;;8.06;75.96
72157;BME280;60035;52.122;5.406;2023-04-26T09:05:28;102181.03;;;7.97;76.49
72157;BME280;60035;52.122;5.406;2023-04-26T09:08:00;102186.97;;;7.94;76.75
72157;BME280;60035;52.122;5.406;2023-04-26T09:10:30;102177.63;;;7.90;76.65
72157;BME280;60035;52.122;5.406;2023-04-26T09:12:57;102174.19;;;7.88;77.50
72157;BME280;60035;52.122;5.406;2023-04-26T09:15:25;102180.13;;;7.84;76.59
72157;BME280;60035;52.122;5.406;2023-04-26T09:17:52;102176.75;;;7.88;76.58
72157;BME280;60035;52.122;5.406;2023-04-26T09:20:26;102175.94;;;7.97;76.45
72157;BME280;60035;52.122;5.406;2023-04-26T09:23:03;102180.22;;;8.06;76.84
72157;BME280;60035;52.122;5.406;2023-04-26T09:25:30;102176.84;;;8.19;76.92
72157;BME280;60035;52.122;5.406;2023-04-26T09:27:58;102184.50;;;8.34;76.55
72157;BME280;60035;52.122;5.406;2023-04-26T09:30:26;102186.22;;;8.43;75.81
72157;BME280;60035;52.122;5.406;2023-04-26T09:32:59;102181.19;;;8.49;75.00
72157;BME280;60035;52.122;5.406;2023-04-26T09:35:35;102184.59;;;8.64;74.52
72157;BME280;60035;52.122;5.406;2023-04-26T09:40:39;102184.53;;;8.99;74.88
72157;BME280;60035;52.122;5.406;2023-04-26T09:43:11;102179.44;;;9.07;72.70
72157;BME280;60035;52.122;5.406;2023-04-26T09:48:18;102178.53;;;9.33;71.99
72157;BME280;60035;52.122;5.406;2023-04-26T09:50:48;102178.50;;;9.39;70.11
72157;BME280;60035;52.122;5.406;2023-04-26T09:53:34;102182.72;;;9.59;69.09
72157;BME280;60035;52.122;5.406;2023-04-26T09:56:08;102174.16;;;9.67;68.23
72157;BME280;60035;52.122;5.406;2023-04-26T09:58:38;102176.66;;;9.80;68.35
72157;BME280;60035;52.122;5.406;2023-04-26T10:01:06;102174.91;;;9.91;66.76
72157;BME280;60035;52.122;5.406;2023-04-26T10:03:33;102173.16;;;9.93;66.00
72157;BME280;60035;52.122;5.406;2023-04-26T10:06:01;102165.47;;;10.04;65.88
72157;BME280;60035;52.122;5.406;2023-04-26T10:08:28;102172.19;;;10.14;64.80
72157;BME280;60035;52.122;5.406;2023-04-26T10:10:56;102167.06;;;10.14;63.46
72157;BME280;60035;52.122;5.406;2023-04-26T10:13:23;102167.91;;;10.20;64.01
72157;BME280;60035;52.122;5.406;2023-04-26T10:15:49;102161.97;;;10.14;61.44
72157;BME280;60035;52.122;5.406;2023-04-26T10:18:17;102167.13;;;10.07;61.50
72157;BME280;60035;52.122;5.406;2023-04-26T10:20:47;102162.00;;;10.11;62.09
72157;BME280;60035;52.122;5.406;2023-04-26T10:23:21;102159.41;;;10.17;61.29
72157;BME280;60035;52.122;5.406;2023-04-26T10:25:51;102166.16;;;10.25;60.91
72157;BME280;60035;52.122;5.406;2023-04-26T10:31:10;102165.44;;;10.07;58.13
72157;BME280;60035;52.122;5.406;2023-04-26T10:33:36;102168.94;;;9.88;58.07
72157;BME280;60035;52.122;5.406;2023-04-26T10:36:10;102170.69;;;9.81;59.14
72157;BME280;60035;52.122;5.406;2023-04-26T10:38:41;102162.16;;;9.77;58.94
72157;BME280;60035;52.122;5.406;2023-04-26T10:41:33;102168.13;;;9.76;59.16
72157;BME280;60035;52.122;5.406;2023-04-26T10:47:10;102157.09;;;9.68;60.78
72157;BME280;60035;52.122;5.406;2023-04-26T10:49:46;102169.91;;;9.66;60.44
72157;BME280;60035;52.122;5.406;2023-04-26T10:52:15;102161.34;;;9.71;60.71
72157;BME280;60035;52.122;5.406;2023-04-26T10:55:00;102167.28;;;9.82;60.69
72157;BME280;60035;52.122;5.406;2023-04-26T11:02:53;102157.63;;;10.26;59.74
72157;BME280;60035;52.122;5.406;2023-04-26T11:08:20;102163.59;;;10.29;58.56
72157;BME280;60035;52.122;5.406;2023-04-26T11:10:55;102162.78;;;10.24;57.82
72157;BME280;60035;52.122;5.406;2023-04-26T11:13:22;102167.03;;;10.22;57.05
72157;BME280;60035;52.122;5.406;2023-04-26T11:15:53;102156.81;;;10.19;56.45
72157;BME280;60035;52.122;5.406;2023-04-26T11:18:20;102153.38;;;10.23;55.14
72157;BME280;60035;52.122;5.406;2023-04-26T11:20:46;102155.91;;;10.25;55.83
72157;BME280;60035;52.122;5.406;2023-04-26T11:23:13;102146.47;;;10.34;56.47
72157;BME280;60035;52.122;5.406;2023-04-26T11:25:40;102143.84;;;10.47;55.77
72157;BME280;60035;52.122;5.406;2023-04-26T11:28:07;102141.34;;;10.39;55.71
72157;BME280;60035;52.122;5.406;2023-04-26T11:30:33;102136.13;;;10.50;55.41
72157;BME280;60035;52.122;5.406;2023-04-26T11:33:01;102145.63;;;10.39;55.33
72157;BME280;60035;52.122;5.406;2023-04-26T11:35:33;102143.91;;;10.33;54.23
72157;BME280;60035;52.122;5.406;2023-04-26T11:38:01;102135.38;;;10.37;55.52
72157;BME280;60035;52.122;5.406;2023-04-26T11:40:30;102144.78;;;10.32;55.01
72157;BME280;60035;52.122;5.406;2023-04-26T11:43:04;102137.94;;;10.32;55.29
72157;BME280;60035;52.122;5.406;2023-04-26T11:45:32;102137.81;;;10.56;55.08
72157;BME280;60035;52.122;5.406;2023-04-26T11:48:02;102136.97;;;10.52;55.28
72157;BME280;60035;52.122;5.406;2023-04-26T11:50:33;102136.94;;;10.55;54.74
72157;BME280;60035;52.122;5.406;2023-04-26T11:53:03;102139.41;;;10.69;54.49
72157;BME280;60035;52.122;5.406;2023-04-26T11:55:31;102137.34;;;11.04;54.13
72157;BME280;60035;52.122;5.406;2023-04-26T11:58:10;102139.53;;;11.38;54.08
72157;BME280;60035;52.122;5.406;2023-04-26T12:00:54;102129.94;;;11.54;52.44
72157;BME280;60035;52.122;5.406;2023-04-26T12:03:21;102135.06;;;11.52;51.25
72157;BME280;60035;52.122;5.406;2023-04-26T12:05:54;102136.91;;;11.42;51.16
72157;BME280;60035;52.122;5.406;2023-04-26T12:08:25;102132.84;;;11.24;51.00
72157;BME280;60035;52.122;5.406;2023-04-26T12:10:52;102131.22;;;11.17;51.17
72157;BME280;60035;52.122;5.406;2023-04-26T12:13:19;102134.72;;;11.08;50.49
72157;BME280;60035;52.122;5.406;2023-04-26T12:15:46;102142.69;;;10.80;51.65
72157;BME280;60035;52.122;5.406;2023-04-26T12:18:13;102137.84;;;10.51;51.77
72157;BME280;60035;52.122;5.406;2023-04-26T12:20:41;102137.03;;;10.46;51.88
72157;BME280;60035;52.122;5.406;2023-04-26T12:23:08;102141.22;;;10.52;53.19
72157;BME280;60035;52.122;5.406;2023-04-26T12:25:36;102145.63;;;10.37;52.50
72157;BME280;60035;52.122;5.406;2023-04-26T12:28:06;102152.47;;;10.29;53.84
72157;BME280;60035;52.122;5.406;2023-04-26T12:30:38;102155.06;;;10.27;53.63
72157;BME280;60035;52.122;5.406;2023-04-26T12:33:05;102155.94;;;10.23;54.01
72157;BME280;60035;52.122;5.406;2023-04-26T12:35:42;102154.19;;;10.30;54.77
72157;BME280;60035;52.122;5.406;2023-04-26T12:38:09;102155.03;;;10.33;54.36
72157;BME280;60035;52.122;5.406;2023-04-26T12:40:36;102153.41;;;10.22;54.30
72157;BME280;60035;52.122;5.406;2023-04-26T12:43:02;102154.22;;;10.24;55.15
72157;BME280;60035;52.122;5.406;2023-04-26T12:45:29;102158.56;;;10.12;54.87
72157;BME280;60035;52.122;5.406;2023-04-26T12:47:55;102152.56;;;10.16;55.15
72157;BME280;60035;52.122;5.406;2023-04-26T12:50:22;102146.56;;;10.25;55.05
72157;BME280;60035;52.122;5.406;2023-04-26T12:52:50;102146.50;;;10.30;55.46
72157;BME280;60035;52.122;5.406;2023-04-26T12:55:17;102140.47;;;10.43;55.08
72157;BME280;60035;52.122;5.406;2023-04-26T12:57:44;102139.56;;;10.50;55.49
72157;BME280;60035;52.122;5.406;2023-04-26T13:00:13;102136.09;;;10.56;54.86
72157;BME280;60035;52.122;5.406;2023-04-26T13:02:40;102143.47;;;10.87;55.54
72157;BME280;60035;52.122;5.406;2023-04-26T13:05:08;102138.16;;;11.07;54.43
72157;BME280;60035;52.122;5.406;2023-04-26T13:07:36;102145.63;;;11.29;53.62
72157;BME280;60035;52.122;5.406;2023-04-26T13:10:05;102141.28;;;11.34;53.58
72157;BME280;60035;52.122;5.406;2023-04-26T13:12:33;102142.16;;;11.33;53.02
72157;BME280;60035;52.122;5.406;2023-04-26T13:14:59;102147.44;;;11.21;52.52